createdAt,value
2022-09-05T00:01:27.503Z,68.06
2022-09-05T00:04:06.357Z,68.88
2022-09-05T00:06:52.679Z,68.60
2022-09-05T00:09:27.776Z,68.43
2022-09-05T00:12:02.591Z,68.74
2022-09-05T00:15:15.896Z,68.88
2022-09-05T00:17:39.410Z,69.29
2022-09-05T00:24:19.902Z,68.47
2022-09-05T00:24:32.020Z,67.46
2022-09-05T00:26:09.261Z,67.27
2022-09-05T00:28:43.366Z,68.57
2022-09-05T00:31:56.202Z,73.78
2022-09-05T00:34:18.800Z,77.71
2022-09-05T00:36:47.353Z,80.77
2022-09-05T00:39:18.648Z,83.47
2022-09-05T00:41:49.499Z,85.32
2022-09-05T00:44:20.213Z,86.98
2022-09-05T00:46:52.744Z,87.18
2022-09-05T00:49:22.557Z,90.56
2022-09-05T00:51:54.771Z,90.57
2022-09-05T00:54:42.689Z,95.89
2022-09-05T00:57:30.643Z,98.14
2022-09-05T01:00:07.642Z,93.51
2022-09-05T01:02:52.022Z,95.37
2022-09-05T01:05:25.044Z,99.21
2022-09-05T01:07:59.567Z,100.00
2022-09-05T01:10:34.835Z,100.00
2022-09-05T01:13:15.676Z,96.48
2022-09-05T01:15:50.639Z,97.02
2022-09-05T01:18:32.913Z,100.00
2022-09-05T01:21:07.744Z,100.00
2022-09-05T01:23:57.369Z,98.79
2022-09-05T01:26:41.287Z,94.15
2022-09-05T01:29:19.612Z,100.00
2022-09-05T01:31:56.887Z,94.07
2022-09-05T01:34:31.823Z,99.19
2022-09-05T01:37:05.114Z,98.61
2022-09-05T01:40:15.434Z,97.06
2022-09-05T01:42:34.170Z,100.00
2022-09-05T01:45:06.226Z,94.08
2022-09-05T01:47:41.526Z,100.00
2022-09-05T01:50:15.127Z,100.00
2022-09-05T01:52:57.470Z,95.98
2022-09-05T01:55:33.116Z,94.72
2022-09-05T01:58:25.563Z,97.02
2022-09-05T02:01:26.623Z,100.00
2022-09-05T02:03:49.943Z,100.00
2022-09-05T02:06:35.437Z,100.00
2022-09-05T02:09:11.623Z,100.00
2022-09-05T02:11:46.641Z,100.00
2022-09-05T02:14:34.272Z,100.00
2022-09-05T02:17:23.363Z,100.00
2022-09-05T02:20:10.666Z,100.00
2022-09-05T02:22:43.146Z,100.00
2022-09-05T02:25:25.611Z,100.00
2022-09-05T02:28:07.124Z,100.00
2022-09-05T02:30:37.121Z,100.00
2022-09-05T02:33:22.066Z,100.00
2022-09-05T02:35:54.121Z,100.00
2022-09-05T02:43:55.618Z,100.00
2022-09-05T02:45:06.970Z,100.00
2022-09-05T02:45:11.900Z,100.00
2022-09-05T02:47:05.141Z,100.00
2022-09-05T02:51:06.903Z,100.00
2022-09-05T02:57:28.021Z,100.00
2022-09-05T02:57:42.877Z,100.00
2022-09-05T02:58:23.261Z,99.23
2022-09-05T03:00:56.113Z,100.00
2022-09-05T03:03:30.046Z,100.00
2022-09-05T03:06:01.664Z,100.00
2022-09-05T03:08:45.077Z,100.00
2022-09-05T03:11:27.890Z,100.00
2022-09-05T03:14:12.044Z,100.00
2022-09-05T03:17:06.970Z,100.00
2022-09-05T03:19:56.006Z,100.00
2022-09-05T03:22:37.675Z,100.00
2022-09-05T03:25:28.938Z,100.00
2022-09-05T03:28:27.027Z,100.00
2022-09-05T03:31:15.970Z,100.00
2022-09-05T03:34:08.370Z,100.00
2022-09-05T03:36:51.012Z,100.00
2022-09-05T03:39:33.861Z,100.00
2022-09-05T03:42:15.071Z,100.00
2022-09-05T03:44:54.510Z,100.00
2022-09-05T03:47:35.726Z,100.00
2022-09-05T03:53:58.500Z,100.00
2022-09-05T03:57:14.289Z,100.00
2022-09-05T03:57:18.606Z,100.00
2022-09-05T03:59:12.024Z,100.00
2022-09-05T04:05:08.917Z,100.00
2022-09-05T04:08:08.729Z,100.00
2022-09-05T04:08:16.718Z,100.00
2022-09-05T04:10:22.099Z,100.00
2022-09-05T04:12:53.137Z,100.00
2022-09-05T04:15:28.121Z,100.00
2022-09-05T04:18:03.737Z,100.00
2022-09-05T04:20:40.452Z,100.00
2022-09-05T04:23:25.511Z,100.00
2022-09-05T04:26:11.079Z,100.00
2022-09-05T04:28:53.572Z,100.00
2022-09-05T04:31:26.833Z,100.00
2022-09-05T04:34:01.407Z,100.00
2022-09-05T04:36:31.148Z,100.00
2022-09-05T04:39:10.128Z,100.00
2022-09-05T04:41:41.614Z,100.00
2022-09-05T04:44:12.988Z,100.00
2022-09-05T04:46:48.279Z,100.00
2022-09-05T04:49:20.510Z,100.00
2022-09-05T04:52:07.015Z,100.00
2022-09-05T04:54:41.805Z,100.00
2022-09-05T04:57:14.128Z,100.00
2022-09-05T05:02:49.328Z,100.00
2022-09-05T05:06:09.238Z,100.00
2022-09-05T05:06:13.728Z,100.00
2022-09-05T05:08:26.784Z,100.00
2022-09-05T05:17:35.335Z,100.00
2022-09-05T05:18:12.957Z,100.00
2022-09-05T05:18:14.076Z,100.00
2022-09-05T05:19:45.759Z,100.00
2022-09-05T05:22:34.393Z,100.00
2022-09-05T05:25:02.811Z,100.00
2022-09-05T05:27:33.698Z,100.00
2022-09-05T05:30:04.661Z,100.00
2022-09-05T05:32:46.081Z,100.00
2022-09-05T05:35:16.366Z,100.00
2022-09-05T05:37:47.141Z,100.00
2022-09-05T05:40:20.574Z,100.00
2022-09-05T05:42:48.978Z,100.00
2022-09-05T05:45:18.094Z,100.00
2022-09-05T05:47:47.647Z,100.00
2022-09-05T05:50:21.654Z,100.00
2022-09-05T05:53:13.290Z,100.00
2022-09-05T05:56:18.870Z,100.00
2022-09-05T05:58:53.350Z,100.00
2022-09-05T06:01:37.948Z,100.00
2022-09-05T06:04:24.071Z,100.00
2022-09-05T06:06:58.055Z,100.00
2022-09-05T06:14:42.734Z,100.00
2022-09-05T06:15:03.644Z,100.00
2022-09-05T06:16:14.797Z,100.00
2022-09-05T06:18:53.502Z,100.00
2022-09-05T06:22:10.059Z,100.00
2022-09-05T06:24:43.734Z,100.00
2022-09-05T06:27:26.546Z,100.00
2022-09-05T06:29:58.567Z,100.00
2022-09-05T06:32:56.766Z,100.00
2022-09-05T06:35:33.133Z,100.00
2022-09-05T06:38:05.703Z,100.00
2022-09-05T06:40:36.687Z,100.00
2022-09-05T06:43:18.458Z,100.00
2022-09-05T06:45:58.619Z,100.00
2022-09-05T06:48:46.084Z,100.00
2022-09-05T06:51:29.916Z,100.00
2022-09-05T06:54:12.626Z,100.00
2022-09-05T06:56:54.810Z,100.00
2022-09-05T06:59:43.315Z,100.00
2022-09-05T07:02:17.184Z,100.00
2022-09-05T07:05:36.936Z,100.00
2022-09-05T07:07:52.239Z,100.00
2022-09-05T07:10:41.870Z,100.00
2022-09-05T07:13:15.354Z,100.00
2022-09-05T07:15:51.540Z,100.00
2022-09-05T07:18:23.973Z,100.00
2022-09-05T07:21:16.458Z,100.00
2022-09-05T07:24:05.971Z,100.00
2022-09-05T07:26:51.774Z,100.00
2022-09-05T07:29:24.131Z,100.00
2022-09-05T07:31:53.618Z,100.00
2022-09-05T07:34:23.691Z,100.00
2022-09-05T07:37:13.990Z,100.00
2022-09-05T07:39:45.359Z,100.00
2022-09-05T07:42:16.200Z,100.00
2022-09-05T07:44:51.689Z,100.00
2022-09-05T07:47:22.000Z,100.00
2022-09-05T07:50:12.599Z,100.00
2022-09-05T07:57:02.241Z,100.00
2022-09-05T07:57:10.463Z,100.00
2022-09-05T07:58:21.414Z,100.00
2022-09-05T08:00:52.956Z,100.00
2022-09-05T08:03:25.755Z,100.00
2022-09-05T08:05:55.258Z,100.00
2022-09-05T08:08:26.218Z,96.92
2022-09-05T08:11:24.317Z,96.65
2022-09-05T08:13:48.545Z,96.11
2022-09-05T08:16:17.797Z,92.08
2022-09-05T08:18:50.969Z,87.15
2022-09-05T08:21:27.304Z,91.80
2022-09-05T08:24:07.771Z,90.60
2022-09-05T08:26:47.028Z,92.01
2022-09-05T08:29:22.840Z,91.33
2022-09-05T08:31:52.862Z,88.57
2022-09-05T08:34:27.693Z,91.45
2022-09-05T08:37:00.889Z,90.73
2022-09-05T08:39:33.275Z,90.30
2022-09-05T08:42:09.396Z,89.36
2022-09-05T08:46:37.322Z,91.53
2022-09-05T08:47:33.111Z,92.29
2022-09-05T08:50:20.663Z,90.41
2022-09-05T08:53:03.840Z,89.65
2022-09-05T08:55:55.954Z,89.73
2022-09-05T08:58:36.186Z,91.45
2022-09-05T09:01:12.175Z,90.86
2022-09-05T09:03:52.449Z,90.42
2022-09-05T09:06:30.039Z,89.14
2022-09-05T09:09:08.794Z,90.37
2022-09-05T09:11:40.067Z,89.41
2022-09-05T09:14:31.060Z,89.13
2022-09-05T09:17:03.305Z,89.12
2022-09-05T09:19:39.058Z,88.99
2022-09-05T09:22:13.793Z,92.29
2022-09-05T09:24:44.393Z,89.87
2022-09-05T09:28:48.343Z,89.17
2022-09-05T09:30:29.030Z,89.93
2022-09-05T09:32:59.477Z,88.60
2022-09-05T09:35:32.601Z,88.96
2022-09-05T09:38:15.089Z,87.31
2022-09-05T09:41:02.707Z,84.95
2022-09-05T09:43:39.788Z,85.65
2022-09-05T09:46:21.227Z,83.78
2022-09-05T09:48:59.999Z,83.33
2022-09-05T09:51:38.433Z,80.55
2022-09-05T09:54:12.961Z,80.98
2022-09-05T09:56:55.718Z,83.20
2022-09-05T09:59:54.647Z,80.78
2022-09-05T10:04:31.197Z,81.72
2022-09-05T10:10:46.046Z,83.78
2022-09-05T10:10:46.907Z,82.70
2022-09-05T10:11:53.457Z,82.67
2022-09-05T10:14:50.933Z,82.17
2022-09-05T10:17:33.966Z,82.53
2022-09-05T10:20:18.470Z,82.72
2022-09-05T10:22:58.009Z,82.10
2022-09-05T10:25:30.849Z,83.70
2022-09-05T10:28:05.850Z,81.88
2022-09-05T10:32:13.636Z,82.14
2022-09-05T10:35:12.790Z,83.04
2022-09-05T10:36:29.045Z,83.74
2022-09-05T10:39:03.236Z,81.86
2022-09-05T10:41:43.568Z,81.25
2022-09-05T10:44:14.213Z,83.03
2022-09-05T10:46:52.025Z,81.80
2022-09-05T10:49:23.622Z,81.00
2022-09-05T10:52:09.966Z,82.43
2022-09-05T10:55:13.798Z,83.44
2022-09-05T10:57:50.489Z,81.97
2022-09-05T11:02:24.768Z,82.23
2022-09-05T11:03:23.573Z,82.22
2022-09-05T11:05:57.001Z,82.70
2022-09-05T11:08:32.691Z,83.49
2022-09-05T11:11:04.401Z,82.92
2022-09-05T11:13:40.302Z,80.62
2022-09-05T11:16:13.948Z,83.02
2022-09-05T11:18:55.453Z,82.26
2022-09-05T11:21:32.135Z,82.49
2022-09-05T11:24:07.250Z,81.85
2022-09-05T11:26:37.112Z,79.06
2022-09-05T11:29:07.373Z,79.99
2022-09-05T11:32:04.250Z,79.04
2022-09-05T11:39:57.409Z,77.13
2022-09-05T11:40:08.821Z,76.44
2022-09-05T11:40:58.032Z,77.30
2022-09-05T11:43:38.462Z,75.06
2022-09-05T11:46:17.411Z,72.80
2022-09-05T11:48:58.158Z,70.67
2022-09-05T11:51:40.380Z,68.46
2022-09-05T11:54:26.710Z,67.99
2022-09-05T11:57:32.599Z,68.26
2022-09-05T12:00:31.899Z,68.60
2022-09-05T12:03:00.715Z,67.49
2022-09-05T12:05:50.874Z,67.58
2022-09-05T12:08:30.827Z,67.67
2022-09-05T12:11:06.181Z,70.78
2022-09-05T12:13:42.571Z,69.44
2022-09-05T12:16:27.069Z,68.40
2022-09-05T12:19:19.482Z,69.24
2022-09-05T12:22:02.518Z,69.15
2022-09-05T12:25:24.072Z,71.33
2022-09-05T12:27:44.804Z,70.57
2022-09-05T12:30:31.412Z,69.60
2022-09-05T12:36:05.626Z,69.91
2022-09-05T12:40:35.590Z,71.31
2022-09-05T12:41:32.745Z,70.67
2022-09-05T12:42:19.977Z,69.75
2022-09-05T12:44:58.859Z,70.31
2022-09-05T12:47:30.091Z,70.84
2022-09-05T12:50:03.369Z,70.69
2022-09-05T12:52:44.819Z,70.29
2022-09-05T12:55:20.471Z,71.32
2022-09-05T13:02:58.068Z,71.43
2022-09-05T13:03:07.315Z,68.93
2022-09-05T13:04:20.267Z,68.89
2022-09-05T13:06:55.412Z,69.07
2022-09-05T13:09:29.441Z,68.88
2022-09-05T13:14:56.436Z,69.18
2022-09-05T13:15:20.043Z,70.61
2022-09-05T13:17:52.419Z,71.05
2022-09-05T13:20:25.829Z,70.34
2022-09-05T13:22:54.396Z,69.61
2022-09-05T13:25:27.159Z,70.58
2022-09-05T13:27:59.220Z,71.03
2022-09-05T13:34:22.004Z,70.03
2022-09-05T13:38:15.762Z,71.20
2022-09-05T13:38:15.896Z,70.38
2022-09-05T13:39:04.354Z,72.11
2022-09-05T13:41:35.742Z,71.26
2022-09-05T13:44:25.275Z,70.21
2022-09-05T13:46:58.963Z,71.01
2022-09-05T13:49:32.178Z,70.42
2022-09-05T13:52:09.660Z,70.03
2022-09-05T13:54:40.403Z,71.52
2022-09-05T13:57:32.395Z,71.21
2022-09-05T14:00:26.972Z,71.69
2022-09-05T14:06:02.989Z,70.72
2022-09-05T14:09:35.179Z,70.86
2022-09-05T14:11:49.765Z,70.97
2022-09-05T14:15:08.288Z,71.21
2022-09-05T14:20:42.992Z,70.90
2022-09-05T14:23:15.248Z,71.25
2022-09-05T14:25:48.571Z,71.64
2022-09-05T14:28:21.789Z,69.96
2022-09-05T14:34:09.843Z,70.65
2022-09-05T14:37:53.759Z,71.81
2022-09-05T14:37:58.325Z,70.63
2022-09-05T14:39:49.725Z,71.45
2022-09-05T14:42:35.478Z,71.72
2022-09-05T14:45:16.273Z,72.57
2022-09-05T14:48:14.542Z,71.56
2022-09-05T14:50:59.583Z,73.18
2022-09-05T14:57:27.250Z,72.01
2022-09-05T15:02:49.444Z,71.26
2022-09-05T15:02:53.201Z,71.62
2022-09-05T15:05:11.822Z,72.65
2022-09-05T15:07:41.204Z,73.50
2022-09-05T15:12:14.822Z,70.42
2022-09-05T15:13:02.532Z,70.74
2022-09-05T15:15:33.940Z,70.84
2022-09-05T15:18:05.053Z,71.92
2022-09-05T15:20:35.861Z,71.68
2022-09-05T15:23:16.224Z,70.81
2022-09-05T15:25:47.167Z,69.47
2022-09-05T15:28:22.007Z,69.94
2022-09-05T15:30:57.211Z,68.99
2022-09-05T15:33:28.384Z,69.31
2022-09-05T15:35:56.958Z,67.96
2022-09-05T15:38:29.453Z,67.01
2022-09-05T15:41:09.830Z,66.39
2022-09-05T15:43:40.181Z,66.69
2022-09-05T15:46:08.451Z,68.37
2022-09-05T15:48:39.493Z,67.13
2022-09-05T15:51:17.088Z,66.53
2022-09-05T15:53:52.562Z,68.14
2022-09-05T15:56:26.549Z,67.71
2022-09-05T15:59:05.125Z,66.15
2022-09-05T16:01:58.583Z,69.84
2022-09-05T16:07:46.413Z,65.74
2022-09-05T16:10:36.594Z,67.36
2022-09-05T16:10:49.147Z,68.07
2022-09-05T16:12:56.093Z,66.93
2022-09-05T16:19:00.196Z,68.33
2022-09-05T16:23:14.890Z,66.41
2022-09-05T16:23:24.616Z,68.37
2022-09-05T16:24:04.766Z,67.15
2022-09-05T16:26:34.913Z,67.66
2022-09-05T16:29:05.651Z,67.82
2022-09-05T16:31:38.162Z,67.96
2022-09-05T16:34:11.794Z,67.66
2022-09-05T16:36:56.381Z,67.96
2022-09-05T16:39:38.596Z,67.48
2022-09-05T16:42:13.084Z,69.42
2022-09-05T16:44:44.306Z,69.23
2022-09-05T16:47:22.041Z,68.51
2022-09-05T16:49:57.383Z,68.49
2022-09-05T16:52:33.208Z,70.07
2022-09-05T16:55:06.004Z,69.45
2022-09-05T16:57:35.844Z,70.00
2022-09-05T17:00:04.998Z,69.19
2022-09-05T17:02:36.591Z,69.72
2022-09-05T17:05:09.680Z,68.62
2022-09-05T17:07:50.374Z,69.71
2022-09-05T17:10:19.016Z,70.25
2022-09-05T17:12:47.555Z,69.04
2022-09-05T17:15:16.568Z,68.57
2022-09-05T17:18:19.990Z,68.18
2022-09-05T17:20:39.617Z,69.62
2022-09-05T17:29:18.184Z,68.23
2022-09-05T17:29:32.754Z,67.42
2022-09-05T17:29:44.574Z,67.62
2022-09-05T17:32:01.365Z,68.07
2022-09-05T17:34:51.299Z,68.09
2022-09-05T17:37:23.789Z,68.79
2022-09-05T17:40:00.401Z,69.61
2022-09-05T17:42:36.312Z,69.11
2022-09-05T17:45:12.889Z,69.58
2022-09-05T17:47:46.238Z,70.12
2022-09-05T17:50:16.115Z,70.55
2022-09-05T17:53:26.864Z,70.86
2022-09-05T17:56:10.495Z,71.67
2022-09-05T17:58:49.166Z,72.51
2022-09-05T18:01:22.392Z,73.73
2022-09-05T18:04:17.082Z,73.44
2022-09-05T18:06:59.488Z,74.40
2022-09-05T18:10:03.514Z,74.98
2022-09-05T18:13:31.575Z,76.02
2022-09-05T18:15:46.022Z,75.77
2022-09-05T18:19:03.827Z,77.13
2022-09-05T18:21:23.020Z,77.60
2022-09-05T18:23:54.375Z,77.43
2022-09-05T18:26:24.502Z,77.56
2022-09-05T18:32:01.582Z,77.60
2022-09-05T18:34:43.882Z,77.07
2022-09-05T18:37:30.564Z,76.01
2022-09-05T18:40:06.223Z,76.90
2022-09-05T18:42:37.800Z,77.05
2022-09-05T18:45:15.377Z,76.97
2022-09-05T18:47:52.887Z,76.73
2022-09-05T18:50:28.201Z,77.51
2022-09-05T18:53:10.497Z,76.58
2022-09-05T18:56:11.024Z,76.99
2022-09-05T18:58:51.519Z,77.83
2022-09-05T19:01:30.669Z,77.98
2022-09-05T19:04:00.733Z,78.91
2022-09-05T19:06:36.123Z,78.47
2022-09-05T19:09:08.345Z,79.43
2022-09-05T19:11:53.378Z,80.55
2022-09-05T19:14:31.501Z,80.83
2022-09-05T19:17:07.696Z,81.05
2022-09-05T19:19:51.102Z,81.68
2022-09-05T19:23:09.969Z,80.59
2022-09-05T19:25:34.027Z,82.09
2022-09-05T19:36:45.911Z,81.18
2022-09-05T19:37:04.207Z,80.89
2022-09-05T19:37:09.790Z,82.16
2022-09-05T19:37:25.520Z,82.35
2022-09-05T19:41:49.478Z,82.01
2022-09-05T19:47:33.801Z,84.95
2022-09-05T19:47:35.917Z,85.18
2022-09-05T19:48:07.466Z,85.11
2022-09-05T19:50:37.602Z,85.74
2022-09-05T19:53:07.226Z,85.65
2022-09-05T19:55:37.614Z,88.35
2022-09-05T19:58:20.216Z,87.44
2022-09-05T20:01:00.684Z,86.63
2022-09-05T20:03:34.579Z,88.20
2022-09-05T20:06:28.646Z,88.06
2022-09-05T20:09:08.763Z,88.15
2022-09-05T20:11:37.428Z,89.81
2022-09-05T20:14:18.882Z,89.19
2022-09-05T20:16:48.162Z,90.76
2022-09-05T20:19:29.312Z,88.80
2022-09-05T20:22:17.430Z,90.26
2022-09-05T20:24:49.286Z,91.00
2022-09-05T20:27:17.543Z,90.92
2022-09-05T20:29:54.993Z,90.27
2022-09-05T20:32:30.537Z,90.62
2022-09-05T20:43:08.667Z,90.75
2022-09-05T20:43:21.347Z,92.38
2022-09-05T20:43:23.028Z,90.86
2022-09-05T20:43:52.676Z,90.52
2022-09-05T20:49:53.939Z,92.02
2022-09-05T20:54:07.013Z,91.77
2022-09-05T20:54:14.299Z,91.48
2022-09-05T20:54:59.127Z,91.39
2022-09-05T20:57:46.952Z,93.13
2022-09-05T21:00:16.382Z,93.77
2022-09-05T21:02:52.791Z,92.47
2022-09-05T21:05:25.543Z,95.35
2022-09-05T21:08:06.921Z,95.26
2022-09-05T21:10:52.413Z,92.97
2022-09-05T21:13:24.432Z,93.68
2022-09-05T21:15:54.192Z,93.96
2022-09-05T21:18:26.129Z,91.90
2022-09-05T21:21:02.575Z,93.50
2022-09-05T21:23:39.249Z,92.32
2022-09-05T21:26:23.724Z,93.43
2022-09-05T21:29:03.442Z,93.83
2022-09-05T21:31:31.429Z,93.83
2022-09-05T21:34:02.828Z,89.86
2022-09-05T21:36:33.271Z,93.57
2022-09-05T21:39:01.209Z,91.22
2022-09-05T21:41:30.523Z,94.01
2022-09-05T21:47:46.669Z,93.38
2022-09-05T21:47:47.589Z,93.94
2022-09-05T21:49:38.406Z,91.30
2022-09-05T21:52:08.240Z,93.37
2022-09-05T21:59:22.371Z,93.46
2022-09-05T21:59:24.361Z,93.15
2022-09-05T22:00:21.355Z,92.68
2022-09-05T22:02:49.867Z,99.35
2022-09-05T22:05:20.168Z,100.00
2022-09-05T22:07:48.845Z,100.00
2022-09-05T22:10:16.642Z,100.00
2022-09-05T22:12:45.934Z,100.00
2022-09-05T22:15:26.593Z,100.00
2022-09-05T22:18:16.766Z,100.00
2022-09-05T22:21:16.178Z,100.00
2022-09-05T22:23:35.553Z,100.00
2022-09-05T22:26:05.539Z,100.00
2022-09-05T22:28:37.632Z,100.00
2022-09-05T22:31:07.723Z,100.00
2022-09-05T22:33:36.382Z,100.00
2022-09-05T22:36:04.401Z,100.00
2022-09-05T22:38:33.286Z,100.00
2022-09-05T22:41:01.244Z,100.00
2022-09-05T22:43:37.570Z,100.00
2022-09-05T22:46:05.858Z,100.00
2022-09-05T22:48:35.224Z,100.00
2022-09-05T22:51:03.529Z,100.00
2022-09-05T22:53:31.563Z,100.00
2022-09-05T22:56:04.150Z,100.00
2022-09-05T22:58:37.064Z,100.00
2022-09-05T23:01:10.037Z,100.00
2022-09-05T23:03:41.257Z,100.00
2022-09-05T23:06:10.415Z,100.00
2022-09-05T23:08:38.675Z,100.00
2022-09-05T23:11:07.674Z,100.00
2022-09-05T23:13:35.723Z,100.00
2022-09-05T23:16:04.530Z,100.00
2022-09-05T23:18:34.331Z,100.00
2022-09-05T23:21:03.236Z,100.00
2022-09-05T23:23:31.537Z,100.00
2022-09-05T23:26:00.887Z,100.00
2022-09-05T23:28:29.156Z,100.00
2022-09-05T23:30:59.856Z,100.00
2022-09-05T23:33:28.132Z,100.00
2022-09-05T23:36:01.111Z,100.00
2022-09-05T23:38:29.390Z,100.00
2022-09-05T23:41:00.843Z,100.00
2022-09-05T23:43:28.816Z,100.00
2022-09-05T23:45:56.879Z,100.00
2022-09-05T23:48:24.934Z,100.00
2022-09-05T23:50:53.123Z,100.00
2022-09-05T23:53:22.942Z,100.00
2022-09-05T23:55:50.878Z,100.00
2022-09-05T23:58:18.775Z,100.00
